Terminal Aerodrome Forecast
Issued by NWS

Home | Current Version | Previous Version | Text Only | Print | Product List | Glossary On
Versions: 1 2 3 4 5 6 7 8 9 10 11 12 13 14 15
000
FTUS43 KGRB 052300
TAFMTW
TAF
KMTW 052334Z 0600/0624 08006KT P6SM SCT070 BKN150
     FM060300 08005KT P6SM SCT040 OVC070
     FM060800 10004KT P6SM OVC015
     FM061900 13008KT P6SM SCT025 BKN035=

USA.gov is the U.S. government's official web portal to all federal, state and local government web resources and services.